createdAt,value
2019-04-25T00:01:42.552Z,1.43
2019-04-25T00:04:12.204Z,1.20
2019-04-25T00:06:38.627Z,1.10
2019-04-25T00:09:04.853Z,1.20
2019-04-25T00:11:29.332Z,1.33
2019-04-25T00:13:53.953Z,1.00
2019-04-25T00:16:21.402Z,1.10
2019-04-25T00:18:46.338Z,1.20
2019-04-25T00:21:15.205Z,1.27
2019-04-25T00:23:42.442Z,1.50
2019-04-25T00:26:08.970Z,1.60
2019-04-25T00:28:33.486Z,1.50
2019-04-25T00:30:58.166Z,1.40
2019-04-25T00:33:22.634Z,1.53
2019-04-25T00:35:47.445Z,1.73
2019-04-25T00:38:12.684Z,1.43
2019-04-25T00:40:37.225Z,1.63
2019-04-25T00:43:01.758Z,1.57
2019-04-25T00:45:26.295Z,1.30
2019-04-25T00:47:51.879Z,1.73
2019-04-25T00:50:17.217Z,1.40
2019-04-25T00:52:43.553Z,1.70
2019-04-25T00:55:08.503Z,1.60
2019-04-25T00:57:33.042Z,1.83
2019-04-25T01:00:05.237Z,1.87
2019-04-25T01:02:31.564Z,2.20
2019-04-25T01:04:56.148Z,2.10
2019-04-25T01:07:22.386Z,2.37
2019-04-25T01:09:47.712Z,2.80
2019-04-25T01:12:12.891Z,2.87
2019-04-25T01:14:37.422Z,3.10
2019-04-25T01:17:01.951Z,3.33
2019-04-25T01:19:26.554Z,3.17
2019-04-25T01:21:51.250Z,3.27
2019-04-25T01:24:15.929Z,3.77
2019-04-25T01:26:40.513Z,3.47
2019-04-25T01:29:05.779Z,3.90
2019-04-25T01:31:31.509Z,3.90
2019-04-25T01:33:56.610Z,3.83
2019-04-25T01:36:33.223Z,3.90
2019-04-25T01:39:04.218Z,3.73
2019-04-25T01:41:39.779Z,3.90
2019-04-25T01:44:12.133Z,3.77
2019-04-25T01:46:38.431Z,3.87
2019-04-25T01:49:04.327Z,3.80
2019-04-25T01:51:28.937Z,3.87
2019-04-25T01:53:54.858Z,4.13
2019-04-25T01:56:19.841Z,4.20
2019-04-25T01:58:44.438Z,3.80
2019-04-25T02:01:09.454Z,3.90
2019-04-25T02:03:35.463Z,3.60
2019-04-25T02:06:00.325Z,3.50
2019-04-25T02:08:24.863Z,3.97
2019-04-25T02:10:51.046Z,3.80
2019-04-25T02:13:19.868Z,3.67
2019-04-25T02:15:44.469Z,3.93
2019-04-25T02:18:09.037Z,3.60
2019-04-25T02:20:34.005Z,4.10
2019-04-25T02:22:58.574Z,4.00
2019-04-25T02:25:24.598Z,3.83
2019-04-25T02:27:49.119Z,3.60
2019-04-25T02:30:15.785Z,3.57
2019-04-25T02:32:40.518Z,4.20
2019-04-25T02:35:09.505Z,3.77
2019-04-25T02:37:35.171Z,3.80
2019-04-25T02:40:01.441Z,4.13
2019-04-25T02:42:26.144Z,3.93
2019-04-25T02:44:54.728Z,3.93
2019-04-25T02:47:20.220Z,3.90
2019-04-25T02:49:57.312Z,3.97
2019-04-25T02:52:25.900Z,3.97
2019-04-25T02:54:50.461Z,3.50
2019-04-25T02:57:15.024Z,3.73
2019-04-25T02:59:39.644Z,4.00
2019-04-25T03:02:07.586Z,3.77
2019-04-25T03:04:33.782Z,3.80
2019-04-25T03:07:00.091Z,3.90
2019-04-25T03:09:25.032Z,4.10
2019-04-25T03:11:49.682Z,4.20
2019-04-25T03:14:14.762Z,3.70
2019-04-25T03:16:39.358Z,4.17
2019-04-25T03:19:09.480Z,4.07
2019-04-25T03:21:37.487Z,3.80
2019-04-25T03:24:05.277Z,4.00
2019-04-25T03:26:37.944Z,3.60
2019-04-25T03:28:54.611Z,3.63
2019-04-25T03:31:22.866Z,3.70
2019-04-25T03:33:46.220Z,3.97
2019-04-25T03:36:11.212Z,3.90
2019-04-25T03:38:35.773Z,4.00
2019-04-25T03:41:00.965Z,4.27
2019-04-25T03:43:25.545Z,4.20
2019-04-25T03:45:50.029Z,3.80
2019-04-25T03:48:14.638Z,3.20
2019-04-25T03:50:39.327Z,3.40
2019-04-25T03:53:05.321Z,3.60
2019-04-25T03:55:30.299Z,3.07
2019-04-25T03:57:54.871Z,3.30
2019-04-25T04:00:19.493Z,2.70
2019-04-25T04:02:44.410Z,2.57
2019-04-25T04:05:09.615Z,2.30
2019-04-25T04:07:34.194Z,2.40
2019-04-25T04:09:58.669Z,2.27
2019-04-25T04:12:24.324Z,2.40
2019-04-25T04:14:49.147Z,2.20
2019-04-25T04:17:16.069Z,2.30
2019-04-25T04:19:54.594Z,2.20
2019-04-25T04:22:35.905Z,2.30
2019-04-25T04:25:04.342Z,2.50
2019-04-25T04:27:35.152Z,2.33
2019-04-25T04:30:01.973Z,2.30
2019-04-25T04:32:36.475Z,2.30
2019-04-25T04:35:03.473Z,2.67
2019-04-25T04:37:28.338Z,2.53
2019-04-25T04:40:01.356Z,2.70
2019-04-25T04:42:40.090Z,2.23
2019-04-25T04:48:14.100Z,2.37
2019-04-25T04:50:54.466Z,2.40
2019-04-25T04:53:43.817Z,2.20
2019-04-25T04:56:27.133Z,2.10
2019-04-25T04:59:19.721Z,2.33
2019-04-25T05:08:04.563Z,2.23
2019-04-25T05:10:37.479Z,3.00
2019-04-25T05:13:04.324Z,2.90
2019-04-25T05:15:31.387Z,2.80
2019-04-25T05:17:55.921Z,2.40
2019-04-25T05:20:20.479Z,2.93
2019-04-25T05:22:44.947Z,2.70
2019-04-25T05:25:09.684Z,2.10
2019-04-25T05:27:45.976Z,2.17
2019-04-25T05:30:00.517Z,1.57
2019-04-25T05:32:25.238Z,1.40
2019-04-25T05:34:49.741Z,1.70
2019-04-25T05:37:15.183Z,1.50
2019-04-25T05:39:40.107Z,1.77
2019-04-25T05:42:17.125Z,1.57
2019-04-25T05:44:41.354Z,1.37
2019-04-25T05:47:05.985Z,1.70
2019-04-25T05:49:30.473Z,1.57
2019-04-25T05:51:54.940Z,1.73
2019-04-25T05:54:19.485Z,1.57
2019-04-25T05:56:44.008Z,1.43
2019-04-25T05:59:08.544Z,1.60
2019-04-25T06:01:34.320Z,1.80
2019-04-25T06:03:59.274Z,1.47
2019-04-25T06:06:24.773Z,1.67
2019-04-25T06:08:54.244Z,1.50
2019-04-25T06:11:29.598Z,1.50
2019-04-25T06:13:55.715Z,1.40
2019-04-25T06:16:27.061Z,1.50
2019-04-25T06:18:58.350Z,1.20
2019-04-25T06:21:23.576Z,1.23
2019-04-25T06:23:50.781Z,1.20
2019-04-25T06:26:24.910Z,1.10
2019-04-25T06:28:52.038Z,1.20
2019-04-25T06:31:10.435Z,1.40
2019-04-25T06:33:35.141Z,1.60
2019-04-25T06:35:59.649Z,1.40
2019-04-25T06:38:27.241Z,1.33
2019-04-25T06:40:53.583Z,1.30
2019-04-25T06:43:18.194Z,1.30
2019-04-25T06:45:50.397Z,1.37
2019-04-25T06:48:26.054Z,1.30
2019-04-25T06:50:51.414Z,1.83
2019-04-25T06:53:16.004Z,1.40
2019-04-25T06:55:40.549Z,1.30
2019-04-25T06:58:11.694Z,1.27
2019-04-25T07:00:35.198Z,1.50
2019-04-25T07:02:57.731Z,1.30
2019-04-25T07:05:28.957Z,1.10
2019-04-25T07:07:49.550Z,1.10
2019-04-25T07:10:14.386Z,1.20
2019-04-25T07:12:40.077Z,1.10
2019-04-25T07:15:13.801Z,1.07
2019-04-25T07:17:38.733Z,0.90
2019-04-25T07:20:04.880Z,1.23
2019-04-25T07:22:29.638Z,0.80
2019-04-25T07:24:54.343Z,0.97
2019-04-25T07:27:26.821Z,0.80
2019-04-25T07:30:08.438Z,1.13
2019-04-25T07:32:37.280Z,0.90
2019-04-25T07:35:03.470Z,0.97
2019-04-25T07:37:28.327Z,0.90
2019-04-25T07:39:54.200Z,0.80
2019-04-25T07:42:18.891Z,0.73
2019-04-25T07:44:52.043Z,0.93
2019-04-25T07:47:09.697Z,0.80
2019-04-25T07:49:34.817Z,0.97
2019-04-25T07:51:59.809Z,0.80
2019-04-25T07:54:26.388Z,0.90
2019-04-25T07:56:50.593Z,0.80
2019-04-25T07:59:15.118Z,0.90
2019-04-25T08:01:39.829Z,0.70
2019-04-25T08:04:04.828Z,0.70
2019-04-25T08:06:29.427Z,0.90
2019-04-25T08:08:54.606Z,0.70
2019-04-25T08:11:19.545Z,0.80
2019-04-25T08:13:48.698Z,0.80
2019-04-25T08:16:14.945Z,0.83
2019-04-25T08:18:40.364Z,0.70
2019-04-25T08:21:04.982Z,0.80
2019-04-25T08:23:32.345Z,0.80
2019-04-25T08:25:55.801Z,0.80
2019-04-25T08:28:23.685Z,1.20
2019-04-25T08:30:48.351Z,0.93
2019-04-25T08:33:13.919Z,0.90
2019-04-25T08:35:38.549Z,0.70
2019-04-25T08:38:03.422Z,0.80
2019-04-25T08:40:31.631Z,1.00
2019-04-25T08:42:57.058Z,0.80
2019-04-25T08:45:21.763Z,0.70
2019-04-25T08:47:46.207Z,0.57
2019-04-25T08:50:26.947Z,0.80
2019-04-25T08:52:42.851Z,1.10
2019-04-25T08:55:14.262Z,0.80
2019-04-25T08:57:55.678Z,0.90
2019-04-25T09:00:33.053Z,0.70
2019-04-25T09:02:59.838Z,0.87
2019-04-25T09:05:26.624Z,0.70
2019-04-25T09:07:51.142Z,0.80
2019-04-25T09:10:15.690Z,0.70
2019-04-25T09:12:40.252Z,1.07
2019-04-25T09:15:06.517Z,0.90
2019-04-25T09:17:31.034Z,1.00
2019-04-25T09:19:55.491Z,0.73
2019-04-25T09:22:20.043Z,0.90
2019-04-25T09:24:45.355Z,0.70
2019-04-25T09:27:09.863Z,0.87
2019-04-25T09:29:35.382Z,0.70
2019-04-25T09:32:00.459Z,1.00
2019-04-25T09:34:24.915Z,0.80
2019-04-25T09:36:49.376Z,0.90
2019-04-25T09:39:24.630Z,1.20
2019-04-25T09:41:49.099Z,0.90
2019-04-25T09:44:15.710Z,0.70
2019-04-25T09:46:40.269Z,1.00
2019-04-25T09:49:09.354Z,0.80
2019-04-25T09:51:36.044Z,0.70
2019-04-25T09:54:15.190Z,0.73
2019-04-25T09:56:41.567Z,0.73
2019-04-25T09:59:10.803Z,0.70
2019-04-25T10:01:36.554Z,0.83
2019-04-25T10:04:01.074Z,0.83
2019-04-25T10:06:25.872Z,0.70
2019-04-25T10:08:50.450Z,0.60
2019-04-25T10:11:15.272Z,0.80
2019-04-25T10:13:40.115Z,0.80
2019-04-25T10:16:13.952Z,0.53
2019-04-25T10:18:39.264Z,0.60
2019-04-25T10:21:06.890Z,0.73
2019-04-25T10:23:31.381Z,0.80
2019-04-25T10:25:55.999Z,0.80
2019-04-25T10:28:20.690Z,0.70
2019-04-25T10:30:45.292Z,0.60
2019-04-25T10:33:09.825Z,0.50
2019-04-25T10:35:46.694Z,0.90
2019-04-25T10:38:00.888Z,0.60
2019-04-25T10:40:25.798Z,0.50
2019-04-25T10:42:50.754Z,0.60
2019-04-25T10:45:23.173Z,0.60
2019-04-25T10:47:44.272Z,0.80
2019-04-25T10:50:09.002Z,0.90
2019-04-25T10:52:33.838Z,0.53
2019-04-25T10:54:58.318Z,0.50
2019-04-25T10:57:24.789Z,0.50
2019-04-25T11:00:00.707Z,0.50
2019-04-25T11:02:15.516Z,0.67
2019-04-25T11:04:48.848Z,0.60
2019-04-25T11:07:13.908Z,0.70
2019-04-25T11:09:38.387Z,0.40
2019-04-25T11:12:03.312Z,0.60
2019-04-25T11:14:30.925Z,0.40
2019-04-25T11:16:56.412Z,0.60
2019-04-25T11:19:21.011Z,0.43
2019-04-25T11:21:46.558Z,0.53
2019-04-25T11:24:11.174Z,0.50
2019-04-25T11:26:35.780Z,0.50
2019-04-25T11:29:00.418Z,0.60
2019-04-25T11:31:26.770Z,0.50
2019-04-25T11:33:51.313Z,0.40
2019-04-25T11:36:15.913Z,0.40
2019-04-25T11:38:58.301Z,0.57
2019-04-25T11:41:24.314Z,0.40
2019-04-25T11:43:48.951Z,0.40
2019-04-25T11:46:14.523Z,0.60
2019-04-25T11:48:39.131Z,0.50
2019-04-25T11:51:05.244Z,0.80
2019-04-25T11:53:29.823Z,0.47
2019-04-25T11:55:54.731Z,0.40
2019-04-25T11:58:19.479Z,0.50
2019-04-25T12:00:46.245Z,0.50
2019-04-25T12:03:11.658Z,0.50
2019-04-25T12:05:36.138Z,0.63
2019-04-25T12:08:00.702Z,0.60
2019-04-25T12:10:25.577Z,0.50
2019-04-25T12:12:50.115Z,0.33
2019-04-25T12:15:14.892Z,0.40
2019-04-25T12:17:39.449Z,0.50
2019-04-25T12:20:04.704Z,1.00
2019-04-25T12:22:29.163Z,0.33
2019-04-25T12:24:54.731Z,0.40
2019-04-25T12:27:19.841Z,0.40
2019-04-25T12:29:45.843Z,0.43
2019-04-25T12:32:10.596Z,0.40
2019-04-25T12:34:35.061Z,0.40
2019-04-25T12:36:59.902Z,0.60
2019-04-25T12:39:24.706Z,0.40
2019-04-25T12:41:50.417Z,0.43
2019-04-25T12:44:32.732Z,0.40
2019-04-25T12:46:58.911Z,0.57
2019-04-25T12:49:24.211Z,0.50
2019-04-25T12:51:49.763Z,0.40
2019-04-25T12:54:14.246Z,0.50
2019-04-25T12:56:38.777Z,0.40
2019-04-25T12:59:03.393Z,0.50
2019-04-25T13:01:27.932Z,0.40
2019-04-25T13:03:54.017Z,0.50
2019-04-25T13:06:18.549Z,0.47
2019-04-25T13:08:44.111Z,0.57
2019-04-25T13:11:10.484Z,0.50
2019-04-25T13:13:34.932Z,0.47
2019-04-25T13:15:59.474Z,0.60
2019-04-25T13:18:23.939Z,0.40
2019-04-25T13:20:48.405Z,0.50
2019-04-25T13:23:14.410Z,0.50
2019-04-25T13:25:39.169Z,0.50
2019-04-25T13:28:11.355Z,0.40
2019-04-25T13:31:01.272Z,0.50
2019-04-25T13:33:23.504Z,0.33
2019-04-25T13:35:49.293Z,0.40
2019-04-25T13:38:13.824Z,0.63
2019-04-25T13:40:38.375Z,0.60
2019-04-25T13:43:04.918Z,0.67
2019-04-25T13:45:29.191Z,0.60
2019-04-25T13:47:53.801Z,0.35
2019-04-25T13:50:18.265Z,0.40
2019-04-25T13:52:43.250Z,0.30
2019-04-25T13:55:08.489Z,0.50
2019-04-25T13:57:33.054Z,0.50
2019-04-25T13:59:57.530Z,0.47
2019-04-25T14:02:22.730Z,0.53
2019-04-25T14:04:47.277Z,0.40
2019-04-25T14:07:11.890Z,0.45
2019-04-25T14:09:36.442Z,0.50
2019-04-25T14:12:01.003Z,0.40
2019-04-25T14:14:25.596Z,0.57
2019-04-25T14:16:54.686Z,0.70
2019-04-25T14:19:39.023Z,0.40
2019-04-25T14:22:05.251Z,0.45
2019-04-25T14:24:31.074Z,0.75
2019-04-25T14:26:55.955Z,0.60
2019-04-25T14:29:20.477Z,0.82
2019-04-25T14:31:48.388Z,0.70
2019-04-25T14:34:13.218Z,0.80
2019-04-25T14:36:37.872Z,0.60
2019-04-25T14:39:03.091Z,0.50
2019-04-25T14:41:28.133Z,0.60
2019-04-25T14:43:52.827Z,0.42
2019-04-25T14:46:17.312Z,0.53
2019-04-25T14:48:41.821Z,0.70
2019-04-25T14:51:06.414Z,0.57
2019-04-25T14:53:33.589Z,0.50
2019-04-25T14:56:17.013Z,0.50
2019-04-25T14:58:43.326Z,0.40
2019-04-25T15:01:08.157Z,0.60
2019-04-25T15:03:32.649Z,0.50
2019-04-25T15:05:57.230Z,0.65
2019-04-25T15:08:21.711Z,0.57
2019-04-25T15:10:48.438Z,0.53
2019-04-25T15:13:12.680Z,0.57
2019-04-25T15:15:37.150Z,0.40
2019-04-25T15:18:01.697Z,0.45
2019-04-25T15:20:26.256Z,0.50
2019-04-25T15:22:50.750Z,0.53
2019-04-25T15:25:15.281Z,0.50
2019-04-25T15:27:39.843Z,0.50
2019-04-25T15:30:07.731Z,0.50
2019-04-25T15:32:34.781Z,0.70
2019-04-25T15:34:59.608Z,0.50
2019-04-25T15:37:26.474Z,0.53
2019-04-25T15:39:52.695Z,0.35
2019-04-25T15:42:35.182Z,0.50
2019-04-25T15:45:17.955Z,0.60
2019-04-25T15:47:42.517Z,0.60
2019-04-25T15:50:07.709Z,0.60
2019-04-25T15:52:32.197Z,0.50
2019-04-25T15:55:06.498Z,0.50
2019-04-25T15:57:22.996Z,0.80
2019-04-25T15:59:47.542Z,0.60
2019-04-25T16:02:13.736Z,0.50
2019-04-25T16:04:38.195Z,0.60
2019-04-25T16:07:02.673Z,0.70
2019-04-25T16:09:27.929Z,0.60
2019-04-25T16:11:52.532Z,0.50
2019-04-25T16:14:16.987Z,0.42
2019-04-25T16:16:41.559Z,0.57
2019-04-25T16:19:07.174Z,0.60
2019-04-25T16:21:31.678Z,0.45
2019-04-25T16:23:56.305Z,0.60
2019-04-25T16:26:20.768Z,0.60
2019-04-25T16:28:45.305Z,0.70
2019-04-25T16:31:11.519Z,0.40
2019-04-25T16:33:35.969Z,0.50
2019-04-25T16:36:00.529Z,0.60
2019-04-25T16:38:25.804Z,0.50
2019-04-25T16:40:50.342Z,0.77
2019-04-25T16:43:16.511Z,0.53
2019-04-25T16:45:41.379Z,0.40
2019-04-25T16:48:06.056Z,0.60
2019-04-25T16:50:31.697Z,0.30
2019-04-25T16:52:56.162Z,0.50
2019-04-25T16:55:20.866Z,0.40
2019-04-25T16:57:45.408Z,0.60
2019-04-25T17:00:20.198Z,0.53
2019-04-25T17:02:44.801Z,0.40
2019-04-25T17:05:09.871Z,0.50
2019-04-25T17:07:34.323Z,0.60
2019-04-25T17:09:58.882Z,0.43
2019-04-25T17:12:24.164Z,0.50
2019-04-25T17:14:56.176Z,0.57
2019-04-25T17:17:25.325Z,0.50
2019-04-25T17:19:51.570Z,0.60
2019-04-25T17:22:16.462Z,0.50
2019-04-25T17:24:41.266Z,0.70
2019-04-25T17:27:07.534Z,0.67
2019-04-25T17:29:32.524Z,0.40
2019-04-25T17:32:04.471Z,0.53
2019-04-25T17:34:46.651Z,0.90
2019-04-25T17:37:22.070Z,0.70
2019-04-25T17:39:51.130Z,1.00
2019-04-25T17:42:15.765Z,0.87
2019-04-25T17:44:40.559Z,0.80
2019-04-25T17:47:06.377Z,0.77
2019-04-25T17:49:32.763Z,0.80
2019-04-25T17:51:57.261Z,1.30
2019-04-25T17:54:21.737Z,1.20
2019-04-25T17:56:46.280Z,1.70
2019-04-25T17:59:10.881Z,1.13
2019-04-25T18:01:35.988Z,1.10
2019-04-25T18:04:00.685Z,1.40
2019-04-25T18:06:25.208Z,1.30
2019-04-25T18:08:49.769Z,1.57
2019-04-25T18:11:14.369Z,1.70
2019-04-25T18:13:41.107Z,1.50
2019-04-25T18:16:10.174Z,1.20
2019-04-25T18:18:37.080Z,0.90
2019-04-25T18:21:01.603Z,1.47
2019-04-25T18:23:27.776Z,1.67
2019-04-25T18:26:03.154Z,1.17
2019-04-25T18:28:29.263Z,1.70
2019-04-25T18:30:54.105Z,1.47
2019-04-25T18:33:20.219Z,1.30
2019-04-25T18:35:46.217Z,2.07
2019-04-25T18:38:15.179Z,1.60
2019-04-25T18:40:44.141Z,1.50
2019-04-25T18:43:10.373Z,0.60
2019-04-25T18:45:37.466Z,1.00
2019-04-25T18:48:02.737Z,0.80
2019-04-25T18:50:28.884Z,1.10
2019-04-25T18:52:55.127Z,1.03
2019-04-25T18:55:21.270Z,1.03
2019-04-25T18:57:47.374Z,1.10
2019-04-25T19:00:19.868Z,0.90
2019-04-25T19:02:49.093Z,0.93
2019-04-25T19:05:15.272Z,0.87
2019-04-25T19:07:39.812Z,0.90
2019-04-25T19:10:07.010Z,0.70
2019-04-25T19:12:31.483Z,1.00
2019-04-25T19:14:56.084Z,1.30
2019-04-25T19:17:20.622Z,1.00
2019-04-25T19:19:45.648Z,0.80
2019-04-25T19:22:10.291Z,1.00
2019-04-25T19:24:34.806Z,0.80
2019-04-25T19:26:59.277Z,0.90
2019-04-25T19:29:23.833Z,0.80
2019-04-25T19:31:48.435Z,0.73
2019-04-25T19:34:13.006Z,0.97
2019-04-25T19:36:37.456Z,0.97
2019-04-25T19:39:01.947Z,1.00
2019-04-25T19:41:28.043Z,0.60
2019-04-25T19:44:03.208Z,0.70
2019-04-25T19:46:32.106Z,0.60
2019-04-25T19:48:56.658Z,0.60
2019-04-25T19:51:21.322Z,0.50
2019-04-25T19:53:45.911Z,0.50
2019-04-25T19:56:10.453Z,0.50
2019-04-25T19:58:35.082Z,0.80
2019-04-25T20:00:59.613Z,0.60
2019-04-25T20:03:28.808Z,0.80
2019-04-25T20:05:54.980Z,0.80
2019-04-25T20:08:23.931Z,0.90
2019-04-25T20:10:53.545Z,0.77
2019-04-25T20:13:18.025Z,0.60
2019-04-25T20:15:43.159Z,0.90
2019-04-25T20:18:08.594Z,0.90
2019-04-25T20:20:33.165Z,0.60
2019-04-25T20:22:57.703Z,0.70
2019-04-25T20:25:22.198Z,0.80
2019-04-25T20:27:46.796Z,0.87
2019-04-25T20:30:11.705Z,0.93
2019-04-25T20:32:36.319Z,1.13
2019-04-25T20:35:00.793Z,0.70
2019-04-25T20:37:25.246Z,0.80
2019-04-25T20:39:49.740Z,0.80
2019-04-25T20:42:14.250Z,0.67
2019-04-25T20:44:38.705Z,0.90
2019-04-25T20:47:03.261Z,0.70
2019-04-25T20:49:27.730Z,0.73
2019-04-25T20:51:52.614Z,0.60
2019-04-25T20:54:17.229Z,0.80
2019-04-25T20:56:41.753Z,0.57
2019-04-25T20:59:06.267Z,0.60
2019-04-25T21:01:30.823Z,0.70
2019-04-25T21:03:55.314Z,0.60
2019-04-25T21:06:22.291Z,0.60
2019-04-25T21:08:46.747Z,0.50
2019-04-25T21:11:11.424Z,0.70
2019-04-25T21:13:37.608Z,0.50
2019-04-25T21:16:12.586Z,0.50
2019-04-25T21:18:38.713Z,0.60
2019-04-25T21:21:03.228Z,0.70
2019-04-25T21:23:27.691Z,0.70
2019-04-25T21:25:52.921Z,0.60
2019-04-25T21:28:17.560Z,0.70
2019-04-25T21:30:42.020Z,0.50
2019-04-25T21:33:06.556Z,0.40
2019-04-25T21:35:31.293Z,0.63
2019-04-25T21:37:55.833Z,0.60
2019-04-25T21:40:24.688Z,0.70
2019-04-25T21:43:00.079Z,0.50
2019-04-25T21:45:24.973Z,0.63
2019-04-25T21:47:49.715Z,0.60
2019-04-25T21:50:14.796Z,0.60
2019-04-25T21:52:39.506Z,0.40
2019-04-25T21:55:05.852Z,0.63
2019-04-25T21:57:30.485Z,1.23
2019-04-25T22:00:03.118Z,0.60
2019-04-25T22:02:21.612Z,0.80
2019-04-25T22:04:46.421Z,0.57
2019-04-25T22:07:11.686Z,0.57
2019-04-25T22:09:36.567Z,0.57
2019-04-25T22:12:01.831Z,0.60
2019-04-25T22:14:26.375Z,0.77
2019-04-25T22:16:51.387Z,0.77
2019-04-25T22:19:16.099Z,0.40
2019-04-25T22:21:40.922Z,0.50
2019-04-25T22:24:13.009Z,0.80
2019-04-25T22:26:31.946Z,0.70
2019-04-25T22:28:57.729Z,0.77
2019-04-25T22:31:24.079Z,0.83
2019-04-25T22:34:06.750Z,0.60
2019-04-25T22:36:31.451Z,0.60
2019-04-25T22:39:14.521Z,0.50
2019-04-25T22:41:41.516Z,0.60
2019-04-25T22:44:07.918Z,0.63
2019-04-25T22:46:32.593Z,0.70
2019-04-25T22:48:57.343Z,0.83
2019-04-25T22:51:21.804Z,0.70
2019-04-25T22:53:47.850Z,0.53
2019-04-25T22:56:12.398Z,0.80
2019-04-25T22:58:36.964Z,0.63
2019-04-25T23:01:03.425Z,0.63
2019-04-25T23:03:29.540Z,0.70
2019-04-25T23:05:55.790Z,0.60
2019-04-25T23:08:20.523Z,0.50
2019-04-25T23:10:45.030Z,0.80
2019-04-25T23:13:10.881Z,0.70
2019-04-25T23:15:35.382Z,0.60
2019-04-25T23:17:59.914Z,0.60
2019-04-25T23:20:24.439Z,0.70
2019-04-25T23:22:48.893Z,0.60
2019-04-25T23:25:15.297Z,0.67
2019-04-25T23:27:53.482Z,0.70
2019-04-25T23:30:19.854Z,0.70
2019-04-25T23:32:44.365Z,0.70
2019-04-25T23:35:24.265Z,0.90
2019-04-25T23:37:35.176Z,0.70
2019-04-25T23:39:59.624Z,0.50
2019-04-25T23:42:24.153Z,0.80
2019-04-25T23:44:48.803Z,0.90
2019-04-25T23:47:14.315Z,0.70
2019-04-25T23:49:38.807Z,0.70
2019-04-25T23:52:03.559Z,0.70
2019-04-25T23:54:28.073Z,0.73
2019-04-25T23:56:52.792Z,0.70
2019-04-25T23:59:17.802Z,0.60
